Time;durP1;ratioP1;P1;durP2;ratioP2;P2;SDS_P1;SDS_P2;PMS_P1;PMS_P2;Temp;Humidity;BMP_temperature;BMP_pressure;BME280_temperature;BME280_humidity;BME280_pressure;Samples;Min_cycle;Max_cycle;Signal;HPM_P1;HPM_P2
2023/01/03 00:00:47;;;;;;;3.00;2.70;;;10.40;99.90;;;;;;5054658;28;20074;-87
2023/01/03 00:03:16;;;;;;;2.63;2.17;;;10.30;99.90;;;;;;5054204;28;20039;-87
2023/01/03 00:05:46;;;;;;;3.67;2.75;;;10.30;99.90;;;;;;5054325;28;20051;-87
2023/01/03 00:08:11;;;;;;;4.28;3.00;;;10.20;99.90;;;;;;5054157;28;20080;-86
2023/01/03 00:10:38;;;;;;;4.55;3.80;;;10.20;99.90;;;;;;5054439;28;20043;-87
2023/01/03 00:13:04;;;;;;;4.18;3.40;;;10.30;99.90;;;;;;5054287;28;20025;-87
2023/01/03 00:15:32;;;;;;;5.13;4.20;;;10.40;99.90;;;;;;5054241;28;20551;-87
2023/01/03 00:17:58;;;;;;;5.75;4.97;;;10.40;99.90;;;;;;5052581;28;20116;-87
2023/01/03 00:20:24;;;;;;;6.85;5.03;;;10.30;99.90;;;;;;5052653;28;20123;-86
2023/01/03 00:22:49;;;;;;;5.20;4.70;;;10.50;99.90;;;;;;5054135;28;20492;-86
2023/01/03 00:25:15;;;;;;;6.22;5.60;;;10.30;99.90;;;;;;5052759;28;20033;-87
2023/01/03 00:27:41;;;;;;;6.45;5.78;;;10.20;99.90;;;;;;5053977;28;20033;-87
2023/01/03 00:30:07;;;;;;;6.22;5.55;;;10.30;99.90;;;;;;5054006;28;20072;-86
2023/01/03 00:32:32;;;;;;;7.88;5.70;;;10.30;99.90;;;;;;5053839;28;20385;-87
2023/01/03 00:34:58;;;;;;;5.65;4.35;;;10.20;99.90;;;;;;5053688;28;20108;-87
2023/01/03 00:37:24;;;;;;;5.75;4.75;;;10.20;99.90;;;;;;5052521;28;20082;-87
2023/01/03 00:39:49;;;;;;;6.40;5.10;;;10.30;99.90;;;;;;5054123;28;20026;-86
2023/01/03 00:42:15;;;;;;;6.95;5.60;;;10.40;99.90;;;;;;5053770;28;20481;-86
2023/01/03 00:44:40;;;;;;;5.45;4.90;;;10.30;99.90;;;;;;5053297;28;20031;-87
2023/01/03 00:47:06;;;;;;;5.70;4.40;;;10.30;99.90;;;;;;5053771;28;20099;-87
2023/01/03 00:49:32;;;;;;;6.65;5.53;;;10.30;99.90;;;;;;5053774;28;20033;-87
2023/01/03 00:51:58;;;;;;;6.25;4.65;;;10.40;99.90;;;;;;5053650;28;20398;-86
2023/01/03 00:54:23;;;;;;;5.50;4.93;;;10.30;99.90;;;;;;5052249;28;20025;-87
2023/01/03 00:56:51;;;;;;;5.82;5.13;;;10.40;99.90;;;;;;5052531;28;20032;-87
2023/01/03 00:59:18;;;;;;;7.88;5.80;;;10.20;99.90;;;;;;5053105;28;20035;-87
2023/01/03 01:01:52;;;;;;;10.75;6.47;;;10.20;99.90;;;;;;5052088;28;20398;-87
2023/01/03 01:04:24;;;;;;;10.40;8.77;;;10.20;99.90;;;;;;5051965;28;20020;-86
2023/01/03 01:06:52;;;;;;;9.90;7.97;;;10.20;99.90;;;;;;5053279;28;20021;-87
2023/01/03 01:09:21;;;;;;;8.82;7.93;;;10.10;99.90;;;;;;5052745;28;20049;-87
2023/01/03 01:11:47;;;;;;;8.40;7.53;;;10.20;99.90;;;;;;5053488;28;20043;-87
2023/01/03 01:14:23;;;;;;;10.10;7.18;;;10.30;99.90;;;;;;5052909;28;20021;-87
2023/01/03 01:17:00;;;;;;;8.38;6.68;;;10.30;99.90;;;;;;5053264;28;20048;-87
2023/01/03 01:19:46;;;;;;;6.90;5.57;;;10.30;99.90;;;;;;5053066;28;20075;-87
2023/01/03 01:22:12;;;;;;;6.90;6.18;;;10.30;99.90;;;;;;5051727;28;20033;-87
2023/01/03 01:24:38;;;;;;;7.32;6.22;;;10.20;99.90;;;;;;5053062;28;20136;-87
2023/01/03 01:27:05;;;;;;;7.65;6.50;;;10.40;99.90;;;;;;5051543;28;20025;-87
2023/01/03 01:29:31;;;;;;;7.03;6.00;;;10.50;99.90;;;;;;5052489;28;20063;-87
2023/01/03 01:31:56;;;;;;;6.78;6.18;;;10.40;99.90;;;;;;5052923;28;20037;-86
2023/01/03 01:34:22;;;;;;;7.28;6.53;;;10.20;99.90;;;;;;5052634;28;20067;-87
2023/01/03 01:36:47;;;;;;;6.50;5.90;;;10.40;99.90;;;;;;5051528;28;20028;-87
2023/01/03 01:39:19;;;;;;;6.97;6.28;;;10.30;99.90;;;;;;5051356;28;20115;-87
2023/01/03 01:45:04;;;;;;;7.30;6.57;;;10.40;99.90;;;;;;5052419;28;20486;-87
2023/01/03 01:47:56;;;;;;;7.90;6.68;;;10.30;99.90;;;;;;5051560;28;20032;-86
2023/01/03 01:50:36;;;;;;;6.32;5.68;;;10.40;99.90;;;;;;5052241;28;20448;-87
2023/01/03 01:53:08;;;;;;;6.18;5.25;;;10.10;99.90;;;;;;5052717;28;20021;-87
2023/01/03 01:55:39;;;;;;;6.07;5.47;;;10.10;99.90;;;;;;5051114;28;20120;-86
2023/01/03 01:58:07;;;;;;;6.30;5.70;;;10.10;99.90;;;;;;5052349;28;20497;-87
2023/01/03 02:00:33;;;;;;;6.07;5.47;;;10.10;99.90;;;;;;5052376;28;20060;-86
2023/01/03 02:02:59;;;;;;;7.95;5.55;;;10.10;99.90;;;;;;5052291;28;20025;-86
2023/01/03 02:05:26;;;;;;;7.03;5.80;;;10.10;99.90;;;;;;5052353;28;20036;-87
2023/01/03 02:07:52;;;;;;;6.28;4.90;;;10.10;99.90;;;;;;5051805;28;20122;-87
2023/01/03 02:10:27;;;;;;;8.13;5.30;;;10.10;99.90;;;;;;5052230;28;20091;-87
2023/01/03 02:13:05;;;;;;;5.75;5.00;;;10.20;99.90;;;;;;5050970;28;20025;-87
2023/01/03 02:15:45;;;;;;;6.72;4.57;;;10.20;99.90;;;;;;5052134;28;20027;-87
2023/01/03 02:18:19;;;;;;;4.63;3.95;;;10.30;99.90;;;;;;5052162;28;20029;-87
2023/01/03 02:20:56;;;;;;;4.15;3.75;;;10.20;99.90;;;;;;5051993;28;20036;-87
2023/01/03 02:23:56;;;;;;;5.00;3.90;;;10.20;99.90;;;;;;5052442;28;20385;-86
2023/01/03 02:26:24;;;;;;;4.40;3.00;;;10.10;99.90;;;;;;5052161;28;20032;-87
2023/01/03 02:29:23;;;;;;;3.90;3.50;;;10.20;99.90;;;;;;5052030;28;20035;-87
2023/01/03 02:32:11;;;;;;;3.13;2.83;;;10.20;99.90;;;;;;5051833;28;20033;-87
2023/01/03 02:35:01;;;;;;;4.68;3.20;;;10.30;99.90;;;;;;5051924;28;20528;-87
2023/01/03 02:38:17;;;;;;;2.97;2.75;;;10.20;99.90;;;;;;5051941;28;20071;-87
2023/01/03 02:40:48;;;;;;;3.47;2.80;;;10.30;99.90;;;;;;5046131;28;20069;-86
2023/01/03 02:43:29;;;;;;;4.13;2.50;;;10.30;99.90;;;;;;5050701;28;20075;-86
2023/01/03 02:46:12;;;;;;;2.97;2.20;;;10.20;99.90;;;;;;5051882;28;20056;-86
2023/01/03 02:48:53;;;;;;;6.82;2.50;;;10.20;99.90;;;;;;5051908;28;20066;-86
2023/01/03 02:51:42;;;;;;;4.13;2.13;;;10.10;99.90;;;;;;5050886;28;20075;-87
2023/01/03 02:54:11;;;;;;;4.60;2.90;;;10.10;99.90;;;;;;5051927;28;20075;-87
2023/01/03 02:56:48;;;;;;;3.45;2.40;;;10.30;99.90;;;;;;5055107;28;20083;-87
2023/01/03 02:59:18;;;;;;;3.08;2.08;;;10.20;99.90;;;;;;5055915;28;20020;-87
2023/01/03 03:01:44;;;;;;;2.42;2.22;;;10.20;99.90;;;;;;5054714;28;20108;-87
2023/01/03 03:04:14;;;;;;;2.30;2.10;;;10.30;99.90;;;;;;5055680;28;20103;-87
2023/01/03 03:07:11;;;;;;;4.15;2.20;;;10.30;99.90;;;;;;5054663;28;20068;-87
2023/01/03 03:13:11;;;;;;;3.50;2.15;;;10.20;99.90;;;;;;5055054;28;20045;-88
2023/01/03 03:15:13;;;;;;;2.35;1.92;;;10.30;99.90;;;;;;5056152;28;20103;-87
2023/01/03 03:17:41;;;;;;;3.10;2.08;;;10.30;99.90;;;;;;5055737;28;20036;-87
2023/01/03 03:25:58;;;;;;;3.35;2.30;;;10.40;99.90;;;;;;5055635;28;20052;-87
2023/01/03 03:28:34;;;;;;;3.15;2.80;;;10.30;99.90;;;;;;5055296;28;20029;-87
2023/01/03 03:31:29;;;;;;;2.97;2.58;;;10.40;99.90;;;;;;5055241;28;20517;-86
2023/01/03 03:34:05;;;;;;;2.53;2.22;;;10.30;99.90;;;;;;5055243;28;20449;-87
2023/01/03 03:37:18;;;;;;;3.35;2.55;;;10.40;99.90;;;;;;5055141;28;20033;-87
2023/01/03 03:45:40;;;;;;;4.38;3.00;;;10.40;99.90;;;;;;5055660;28;20031;-88
2023/01/03 03:48:18;;;;;;;3.00;2.70;;;10.40;99.90;;;;;;5053707;28;20032;-87
2023/01/03 03:50:47;;;;;;;3.20;2.63;;;10.30;99.90;;;;;;5055385;28;20017;-87
2023/01/03 03:53:15;;;;;;;3.78;2.72;;;10.30;99.90;;;;;;5055069;28;20531;-87
2023/01/03 03:55:43;;;;;;;3.13;2.83;;;10.30;99.90;;;;;;5055178;28;20040;-87
2023/01/03 03:58:20;;;;;;;4.47;2.50;;;10.30;99.90;;;;;;5054817;28;20036;-87
2023/01/03 04:00:50;;;;;;;4.25;2.65;;;10.20;99.90;;;;;;5053472;28;20029;-87
2023/01/03 04:03:18;;;;;;;3.10;2.80;;;10.10;99.90;;;;;;5054894;28;20032;-87
2023/01/03 04:05:56;;;;;;;3.92;2.75;;;10.10;99.90;;;;;;5054406;28;20485;-86
2023/01/03 04:08:22;;;;;;;4.88;2.78;;;10.00;99.90;;;;;;5054072;28;20497;-88
2023/01/03 04:10:48;;;;;;;3.28;2.90;;;9.90;99.90;;;;;;5054814;28;20032;-87
2023/01/03 04:13:14;;;;;;;4.30;3.15;;;10.10;99.90;;;;;;5054467;28;20534;-87
2023/01/03 04:15:40;;;;;;;3.47;2.88;;;10.10;99.90;;;;;;5054666;28;20036;-87
2023/01/03 04:18:06;;;;;;;3.05;2.70;;;10.20;99.90;;;;;;5054890;28;20041;-87
2023/01/03 04:20:31;;;;;;;3.72;3.00;;;10.10;99.90;;;;;;5053318;28;20068;-87
2023/01/03 04:22:57;;;;;;;3.65;3.30;;;10.10;99.90;;;;;;5054841;28;20060;-87
2023/01/03 04:25:23;;;;;;;3.30;3.00;;;10.20;99.90;;;;;;5054667;28;20032;-87
2023/01/03 04:27:48;;;;;;;3.90;2.70;;;10.20;99.90;;;;;;5052935;28;20421;-87
2023/01/03 04:30:14;;;;;;;3.70;3.00;;;10.20;99.90;;;;;;5054400;28;20029;-88
2023/01/03 04:32:40;;;;;;;3.33;3.03;;;10.30;99.90;;;;;;5054209;28;20500;-87
2023/01/03 04:35:06;;;;;;;3.70;3.00;;;10.20;99.90;;;;;;5052703;28;20036;-87
2023/01/03 04:37:31;;;;;;;3.53;3.20;;;10.20;99.90;;;;;;5052568;28;20025;-87
2023/01/03 04:39:57;;;;;;;4.07;3.00;;;10.30;99.90;;;;;;5054557;28;20047;-87
2023/01/03 04:45:08;;;;;;;5.22;3.40;;;10.20;99.90;;;;;;5053852;28;20036;-87
2023/01/03 04:47:34;;;;;;;4.40;3.33;;;10.20;99.90;;;;;;5054022;28;20473;-87
2023/01/03 04:49:59;;;;;;;3.70;3.40;;;10.20;99.90;;;;;;5053810;28;20047;-87
2023/01/03 04:52:25;;;;;;;5.55;4.38;;;10.30;99.90;;;;;;5053422;28;20032;-87
2023/01/03 04:54:50;;;;;;;5.60;4.28;;;10.20;99.90;;;;;;5052513;28;20123;-88
2023/01/03 04:57:16;;;;;;;5.18;4.05;;;10.20;99.90;;;;;;5053910;28;20111;-87
2023/01/03 04:59:42;;;;;;;8.43;5.72;;;10.10;99.90;;;;;;5052283;28;20029;-87
2023/01/03 05:02:07;;;;;;;8.88;6.05;;;10.20;99.90;;;;;;5054053;28;20481;-87
2023/01/03 05:04:33;;;;;;;10.38;5.97;;;10.20;99.90;;;;;;5052327;28;20079;-87
2023/01/03 05:06:59;;;;;;;7.43;5.18;;;10.20;99.90;;;;;;5051867;28;20083;-86
2023/01/03 05:09:26;;;;;;;5.10;4.60;;;10.20;99.90;;;;;;5052011;28;20049;-87
2023/01/03 05:11:51;;;;;;;4.95;4.45;;;10.10;99.90;;;;;;5053172;28;20056;-86
2023/01/03 05:14:17;;;;;;;4.50;4.10;;;10.10;99.90;;;;;;5052028;28;20060;-87
2023/01/03 05:16:43;;;;;;;6.82;4.70;;;10.20;99.90;;;;;;5053423;28;20034;-87
2023/01/03 05:19:09;;;;;;;7.03;5.20;;;10.20;99.90;;;;;;5051191;28;20025;-87
2023/01/03 05:27:04;;;;;;;6.93;5.53;;;10.20;99.90;;;;;;5053368;28;20083;-87
2023/01/03 05:29:33;;;;;;;5.20;4.50;;;10.20;99.90;;;;;;5053442;28;20119;-87
2023/01/03 05:31:59;;;;;;;5.20;4.70;;;10.20;99.90;;;;;;5053544;28;20025;-87
2023/01/03 05:34:24;;;;;;;5.50;5.00;;;10.20;99.90;;;;;;5051694;28;20087;-87
2023/01/03 05:36:50;;;;;;;6.22;4.93;;;10.20;99.90;;;;;;5052702;28;20037;-88
2023/01/03 05:39:16;;;;;;;5.95;5.35;;;10.10;99.90;;;;;;5052699;28;20049;-87
2023/01/03 05:42:00;;;;;;;6.20;5.60;;;10.20;99.90;;;;;;5053404;28;20028;-87
2023/01/03 05:44:27;;;;;;;6.93;6.22;;;10.20;99.90;;;;;;5053080;28;20067;-87
2023/01/03 05:46:53;;;;;;;6.80;6.10;;;10.10;99.90;;;;;;5052976;28;20094;-87
2023/01/03 05:49:18;;;;;;;7.38;6.57;;;10.00;99.90;;;;;;5052443;28;20044;-87
2023/01/03 05:51:44;;;;;;;48.63;35.40;;;10.00;99.90;;;;;;5052745;28;20488;-87
2023/01/03 05:54:15;;;;;;;10.82;9.40;;;10.20;99.90;;;;;;5052801;28;20501;-88
2023/01/03 05:56:40;;;;;;;9.40;7.32;;;10.10;99.90;;;;;;5052708;28;20505;-87
2023/01/03 05:59:09;;;;;;;13.10;10.82;;;10.20;99.90;;;;;;5052611;28;20029;-87
2023/01/03 06:01:35;;;;;;;16.10;14.40;;;10.20;99.90;;;;;;5052838;28;20472;-88
2023/01/03 06:04:00;;;;;;;17.27;15.65;;;10.20;99.90;;;;;;5051423;28;20037;-87
2023/01/03 06:06:26;;;;;;;13.73;11.57;;;10.20;99.90;;;;;;5051887;28;20032;-87
2023/01/03 06:08:53;;;;;;;9.10;8.20;;;10.20;99.90;;;;;;5050219;28;20176;-87
2023/01/03 06:11:19;;;;;;;8.23;7.43;;;10.10;99.90;;;;;;5051888;28;20520;-87
2023/01/03 06:13:48;;;;;;;5.13;4.57;;;10.10;99.90;;;;;;5052985;28;20025;-87
2023/01/03 06:19:01;;;;;;;4.47;4.07;;;10.20;99.90;;;;;;5052401;28;20060;-88
2023/01/03 06:21:27;;;;;;;4.20;3.80;;;10.10;99.90;;;;;;5052526;28;20036;-88
2023/01/03 06:23:53;;;;;;;4.32;3.92;;;10.20;99.90;;;;;;5052604;28;20413;-88
2023/01/03 06:26:20;;;;;;;5.40;4.15;;;10.20;99.90;;;;;;5050757;28;20086;-88
2023/01/03 06:28:46;;;;;;;4.40;4.00;;;10.20;99.90;;;;;;5052122;28;20029;-88
2023/01/03 06:31:12;;;;;;;5.00;4.20;;;10.00;99.90;;;;;;5052202;28;20078;-88
2023/01/03 06:33:38;;;;;;;4.88;4.40;;;10.10;99.90;;;;;;5052001;28;20029;-87
2023/01/03 06:36:10;;;;;;;5.45;4.07;;;10.00;99.90;;;;;;5052096;28;20116;-87
2023/01/03 06:38:36;;;;;;;4.20;3.80;;;10.10;99.90;;;;;;5052204;28;20028;-87
2023/01/03 06:41:02;;;;;;;4.35;3.95;;;10.10;99.90;;;;;;5051777;28;20025;-87
2023/01/03 06:43:28;;;;;;;5.43;3.88;;;10.00;99.90;;;;;;5050919;28;20047;-87
2023/01/03 06:54:27;;;;;;;4.97;3.92;;;10.00;99.90;;;;;;5052506;28;20150;-87
2023/01/03 06:56:53;;;;;;;5.43;4.60;;;10.00;99.90;;;;;;5052388;28;20021;-87
2023/01/03 06:59:20;;;;;;;6.78;5.55;;;10.00;99.90;;;;;;5051796;28;20064;-88
2023/01/03 07:01:47;;;;;;;7.25;6.55;;;10.00;99.90;;;;;;5051653;28;20029;-87
2023/01/03 07:04:13;;;;;;;6.75;6.05;;;10.00;99.90;;;;;;5050622;28;20025;-88
2023/01/03 07:06:40;;;;;;;6.32;5.65;;;9.90;99.90;;;;;;5051683;28;20033;-87
2023/01/03 07:09:07;;;;;;;8.98;6.90;;;10.00;99.90;;;;;;5051373;28;20049;-87
2023/01/03 07:11:34;;;;;;;8.48;7.57;;;10.00;99.90;;;;;;5052371;28;20524;-87
2023/01/03 07:14:00;;;;;;;9.27;7.40;;;10.10;99.90;;;;;;5051688;28;20032;-87
2023/01/03 07:16:38;;;;;;;9.70;8.50;;;10.20;99.90;;;;;;5051198;28;20094;-88
2023/01/03 07:19:05;;;;;;;10.32;8.32;;;10.10;99.90;;;;;;5050659;28;20024;-88
2023/01/03 07:21:33;;;;;;;10.00;8.98;;;10.10;99.90;;;;;;5051763;28;20497;-87
2023/01/03 07:24:00;;;;;;;9.52;7.85;;;10.10;99.90;;;;;;5052004;28;20025;-88
2023/01/03 07:26:27;;;;;;;9.80;8.23;;;10.10;99.90;;;;;;5052101;28;20026;-85
2023/01/03 07:28:53;;;;;;;7.60;6.80;;;10.10;99.90;;;;;;5051561;28;20021;-85
2023/01/03 07:31:19;;;;;;;8.35;7.55;;;10.20;99.90;;;;;;5051338;28;20489;-85
2023/01/03 07:33:44;;;;;;;9.50;8.38;;;10.30;99.90;;;;;;5051514;28;20019;-85
2023/01/03 07:36:12;;;;;;;9.55;8.43;;;10.30;99.90;;;;;;5051412;28;20456;-85
2023/01/03 07:38:39;;;;;;;9.13;7.88;;;10.20;99.90;;;;;;5052178;28;20554;-85
2023/01/03 07:41:07;;;;;;;9.02;8.13;;;10.30;99.90;;;;;;5052688;28;20212;-85
2023/01/03 07:43:36;;;;;;;9.48;7.47;;;10.40;99.90;;;;;;5054986;28;20052;-85
2023/01/03 07:46:15;;;;;;;7.70;6.97;;;10.50;99.90;;;;;;5054439;28;20029;-86
2023/01/03 07:48:42;;;;;;;6.18;5.55;;;10.40;99.90;;;;;;5054665;28;20036;-85
2023/01/03 07:51:10;;;;;;;6.00;5.40;;;10.30;99.90;;;;;;5055743;28;20036;-86
2023/01/03 07:53:37;;;;;;;6.45;5.15;;;10.30;99.90;;;;;;5055012;28;20025;-85
2023/01/03 07:56:13;;;;;;;6.05;4.80;;;10.30;99.90;;;;;;5054703;28;20029;-85
2023/01/03 07:58:41;;;;;;;6.97;5.00;;;10.30;99.90;;;;;;5054803;28;20025;-85
2023/01/03 08:01:18;;;;;;;8.02;5.32;;;10.40;99.90;;;;;;5054276;28;20028;-85
2023/01/03 08:03:44;;;;;;;6.32;5.72;;;10.40;99.90;;;;;;5054395;28;20029;-85
2023/01/03 08:06:13;;;;;;;6.82;6.07;;;10.50;99.90;;;;;;5054530;28;20075;-85
2023/01/03 08:08:39;;;;;;;6.80;6.10;;;10.40;99.90;;;;;;5054342;28;20091;-86
2023/01/03 08:13:50;;;;;;;7.40;6.63;;;10.40;99.90;;;;;;5054269;28;20111;-85
2023/01/03 08:16:17;;;;;;;6.55;5.95;;;10.40;99.90;;;;;;5054317;28;20116;-85
2023/01/03 08:18:44;;;;;;;6.38;5.65;;;10.50;99.90;;;;;;5053812;28;20452;-85
2023/01/03 08:21:12;;;;;;;7.88;6.35;;;10.40;99.90;;;;;;5054338;28;20039;-85
2023/01/03 08:23:39;;;;;;;8.50;6.90;;;10.60;99.90;;;;;;5054392;28;20032;-85
2023/01/03 08:26:06;;;;;;;6.07;5.47;;;10.60;99.90;;;;;;5053952;28;20045;-85
2023/01/03 08:28:33;;;;;;;5.95;5.13;;;10.40;99.90;;;;;;5053342;28;20029;-85
2023/01/03 08:31:11;;;;;;;7.63;5.63;;;10.50;99.90;;;;;;5054076;28;20055;-86
2023/01/03 08:33:41;;;;;;;6.97;6.15;;;10.70;99.90;;;;;;5053967;28;20052;-85
2023/01/03 08:36:08;;;;;;;5.85;5.22;;;10.80;99.90;;;;;;5053990;28;20435;-86
2023/01/03 08:38:55;;;;;;;6.95;5.78;;;10.80;99.90;;;;;;5053829;28;20104;-86
2023/01/03 08:41:25;;;;;;;7.65;5.40;;;10.90;99.90;;;;;;5053461;28;20366;-85
2023/01/03 08:43:51;;;;;;;5.63;4.85;;;10.80;99.90;;;;;;5053073;28;20031;-86
2023/01/03 08:46:18;;;;;;;7.10;5.05;;;10.90;99.90;;;;;;5054003;28;20104;-85
2023/01/03 08:48:44;;;;;;;5.60;4.78;;;11.00;99.90;;;;;;5053964;28;20037;-85
2023/01/03 08:51:10;;;;;;;4.32;3.92;;;11.20;99.90;;;;;;5053740;28;20032;-86
2023/01/03 08:53:36;;;;;;;4.75;4.30;;;11.40;99.90;;;;;;5053906;28;20036;-85
2023/01/03 08:56:01;;;;;;;4.63;4.22;;;11.60;99.90;;;;;;5053636;28;20396;-86
2023/01/03 08:58:27;;;;;;;5.70;4.10;;;11.70;99.90;;;;;;5053146;28;20096;-85
2023/01/03 09:00:53;;;;;;;5.03;4.07;;;11.70;99.90;;;;;;5052569;28;20028;-85
2023/01/03 09:03:18;;;;;;;4.10;3.70;;;11.50;99.90;;;;;;5053839;28;20017;-86
2023/01/03 09:05:44;;;;;;;5.00;4.30;;;11.50;99.90;;;;;;5053569;28;20032;-85
2023/01/03 09:08:10;;;;;;;5.13;4.30;;;11.50;99.90;;;;;;5052997;28;20056;-85
2023/01/03 09:10:36;;;;;;;6.03;4.60;;;11.70;99.90;;;;;;5053160;28;20044;-86
2023/01/03 09:13:03;;;;;;;4.93;4.10;;;11.70;99.90;;;;;;5052943;28;20021;-85
2023/01/03 09:15:29;;;;;;;4.43;4.03;;;11.60;99.90;;;;;;5053633;28;20037;-86
2023/01/03 09:17:54;;;;;;;4.22;3.50;;;11.60;99.90;;;;;;5053009;28;20031;-85
2023/01/03 09:20:20;;;;;;;4.35;3.95;;;11.50;99.90;;;;;;5053106;28;20392;-86
2023/01/03 09:22:46;;;;;;;5.82;3.65;;;11.50;99.90;;;;;;5053158;28;20029;-85
2023/01/03 09:25:14;;;;;;;3.65;3.35;;;11.50;99.90;;;;;;5053001;28;20035;-86
2023/01/03 09:27:44;;;;;;;3.92;3.45;;;11.40;99.90;;;;;;5052624;28;20032;-85
2023/01/03 09:30:10;;;;;;;4.05;3.20;;;11.50;99.90;;;;;;5051464;28;20413;-85
2023/01/03 09:32:36;;;;;;;3.90;3.28;;;11.50;99.90;;;;;;5053197;28;20032;-86
2023/01/03 09:35:01;;;;;;;3.55;3.25;;;11.50;99.90;;;;;;5052307;28;20029;-86
2023/01/03 09:37:27;;;;;;;3.70;2.90;;;11.50;99.90;;;;;;5052704;28;20127;-86
2023/01/03 09:39:53;;;;;;;3.40;3.10;;;11.40;99.90;;;;;;5053138;28;20025;-86
2023/01/03 09:45:16;;;;;;;3.40;3.10;;;11.40;99.90;;;;;;5052639;28;20071;-85
2023/01/03 09:47:43;;;;;;;3.42;2.83;;;11.50;99.90;;;;;;5052369;28;20493;-85
2023/01/03 09:50:20;;;;;;;3.05;2.67;;;11.50;99.90;;;;;;5052864;28;20515;-86
2023/01/03 10:04:23;;;;;;;2.72;2.33;;;11.60;99.90;;;;;;5032417;28;20032;-87
2023/01/03 10:07:07;;;;;;;2.67;1.85;;;11.60;99.90;;;;;;5038611;28;20025;-85
2023/01/03 10:09:56;;;;;;;2.55;2.10;;;11.60;99.90;;;;;;5051705;28;20223;-85
2023/01/03 10:12:52;;;;;;;2.60;2.40;;;11.40;99.90;;;;;;5051755;28;20163;-86
2023/01/03 10:15:41;;;;;;;2.63;2.13;;;11.40;99.90;;;;;;5029951;28;20133;-86
2023/01/03 10:18:38;;;;;;;2.47;2.20;;;11.50;99.90;;;;;;5029980;28;20022;-88
2023/01/03 10:21:30;;;;;;;4.90;2.58;;;11.60;99.90;;;;;;5029786;28;20136;-86
2023/01/03 10:23:56;;;;;;;2.92;2.40;;;11.70;99.90;;;;;;5029485;28;20370;-86
2023/01/03 10:26:25;;;;;;;2.15;1.88;;;11.50;99.90;;;;;;5027443;28;20088;-85
2023/01/03 10:28:51;;;;;;;3.10;2.45;;;11.60;99.90;;;;;;5010238;28;20466;-87
2023/01/03 10:31:31;;;;;;;2.97;2.67;;;11.70;99.90;;;;;;5009975;28;20128;-84
2023/01/03 10:33:56;;;;;;;3.83;2.80;;;11.70;99.90;;;;;;5015139;28;20116;-87
2023/01/03 10:36:22;;;;;;;2.70;2.50;;;11.90;99.90;;;;;;5012737;28;20120;-86
2023/01/03 10:39:00;;;;;;;2.97;2.08;;;11.70;99.90;;;;;;5013340;28;20041;-85
2023/01/03 10:41:53;;;;;;;3.00;2.67;;;11.80;99.90;;;;;;5029477;28;20049;-86
2023/01/03 10:44:28;;;;;;;2.97;2.13;;;11.90;99.90;;;;;;5028981;28;20527;-86
2023/01/03 10:46:57;;;;;;;2.75;2.47;;;11.80;99.90;;;;;;5029579;28;20022;-86
2023/01/03 10:49:28;;;;;;;3.00;2.40;;;11.80;99.90;;;;;;5029507;28;20091;-86
2023/01/03 10:52:22;;;;;;;3.05;2.47;;;11.80;99.90;;;;;;5039563;28;20500;-84
2023/01/03 10:54:53;;;;;;;3.47;3.13;;;11.80;99.90;;;;;;5046204;28;20033;-84
2023/01/03 10:57:55;;;;;;;13.68;9.85;;;11.90;99.90;;;;;;5031460;28;20037;-83
2023/01/03 11:00:27;;;;;;;5.05;3.15;;;12.00;99.90;;;;;;5031614;28;20083;-83
2023/01/03 11:02:54;;;;;;;4.28;3.08;;;12.40;99.90;;;;;;5033772;28;20439;-84
2023/01/03 11:05:24;;;;;;;2.80;2.40;;;12.40;99.90;;;;;;5067359;28;20028;-84
2023/01/03 11:07:55;;;;;;;3.00;2.38;;;12.50;99.90;;;;;;5044476;28;20052;-84
2023/01/03 11:10:33;;;;;;;3.00;2.40;;;12.70;99.90;;;;;;5045719;28;20049;-84
2023/01/03 11:12:59;;;;;;;2.83;2.63;;;12.80;99.90;;;;;;5051389;28;20493;-84
2023/01/03 11:15:38;;;;;;;3.83;2.70;;;13.00;99.90;;;;;;5042364;28;20076;-88
2023/01/03 11:18:15;;;;;;;2.83;2.53;;;13.10;99.90;;;;;;5044211;28;20036;-91
2023/01/03 11:20:59;;;;;;;2.72;2.53;;;13.20;99.90;;;;;;5054770;28;20062;-88
2023/01/03 11:23:51;;;;;;;3.55;2.92;;;13.50;99.90;;;;;;5036784;28;20033;-91
2023/01/03 11:26:40;;;;;;;2.97;2.67;;;13.70;99.90;;;;;;5046041;28;20686;-88
2023/01/03 11:29:29;;;;;;;2.70;2.50;;;13.70;99.90;;;;;;5053292;28;20033;-87
2023/01/03 11:32:20;;;;;;;3.00;2.70;;;13.80;99.90;;;;;;5039267;28;20040;-90
2023/01/03 11:34:55;;;;;;;5.35;4.18;;;13.90;99.90;;;;;;5051967;28;20032;-88
2023/01/03 11:37:54;;;;;;;3.00;2.50;;;14.00;99.90;;;;;;5055461;28;20021;-88
2023/01/03 11:40:37;;;;;;;3.17;2.65;;;14.20;99.90;;;;;;5036717;28;20037;-91
2023/01/03 11:43:30;;;;;;;2.53;2.00;;;14.70;99.90;;;;;;5052154;28;20102;-87
2023/01/03 11:46:36;;;;;;;3.42;2.03;;;14.70;99.90;;;;;;5035022;28;20026;-83
2023/01/03 11:49:07;;;;;;;1.90;1.70;;;14.80;99.90;;;;;;5000402;28;20129;-87
2023/01/03 11:51:36;;;;;;;2.05;1.85;;;15.10;99.90;;;;;;4993584;28;20867;-87
2023/01/03 11:54:10;;;;;;;1.95;1.85;;;15.10;99.90;;;;;;4992687;28;20023;-86
2023/01/03 11:56:41;;;;;;;2.60;2.40;;;15.40;99.90;;;;;;5011735;28;20498;-84
2023/01/03 11:59:16;;;;;;;2.10;1.90;;;17.60;99.90;;;;;;5012677;28;20518;-84
2023/01/03 12:01:52;;;;;;;2.55;1.98;;;18.70;99.90;;;;;;5011863;28;20121;-83
2023/01/03 12:04:38;;;;;;;2.13;1.52;;;18.10;99.90;;;;;;5011934;28;20080;-83
2023/01/03 12:07:13;;;;;;;2.22;1.65;;;17.60;99.90;;;;;;5010873;28;20084;-82
2023/01/03 12:09:56;;;;;;;3.30;1.77;;;16.70;99.90;;;;;;5007410;28;20046;-85
2023/01/03 12:12:30;;;;;;;2.00;1.30;;;15.70;99.90;;;;;;5011696;28;20049;-85
2023/01/03 12:15:13;;;;;;;2.45;1.30;;;15.10;99.90;;;;;;5003468;28;20109;-85
2023/01/03 12:17:58;;;;;;;2.08;1.02;;;14.50;99.90;;;;;;5011906;28;20046;-84
2023/01/03 12:20:37;;;;;;;1.25;1.15;;;14.50;99.90;;;;;;5011859;28;20068;-85
2023/01/03 12:23:25;;;;;;;2.83;1.20;;;14.60;99.90;;;;;;4995520;28;20025;-85
2023/01/03 12:25:56;;;;;;;2.50;1.23;;;14.50;99.90;;;;;;5052228;28;20446;-88
2023/01/03 12:28:31;;;;;;;2.13;1.20;;;14.50;99.90;;;;;;5050963;28;20403;-91
2023/01/03 12:31:20;;;;;;;1.75;0.90;;;14.50;99.90;;;;;;5068707;28;20531;-90
2023/01/03 12:34:01;;;;;;;1.30;1.10;;;14.90;99.90;;;;;;5052609;28;20108;-84
2023/01/03 12:36:39;;;;;;;2.33;1.20;;;15.30;99.90;;;;;;5044319;28;20025;-84
2023/01/03 12:39:30;;;;;;;1.85;1.20;;;15.60;99.90;;;;;;5039594;28;20045;-85
2023/01/03 12:42:00;;;;;;;1.50;1.10;;;16.10;99.90;;;;;;5041273;28;20025;-84
2023/01/03 12:44:39;;;;;;;3.22;1.30;;;16.10;99.90;;;;;;5053549;28;20511;-85
2023/01/03 12:47:09;;;;;;;2.05;1.00;;;18.00;99.90;;;;;;5053177;28;20029;-85
2023/01/03 12:49:46;;;;;;;2.05;1.00;;;18.10;99.90;;;;;;5054004;28;20043;-84
2023/01/03 12:52:15;;;;;;;1.00;0.90;;;17.60;99.90;;;;;;5044155;28;20424;-85
2023/01/03 12:55:01;;;;;;;2.10;2.00;;;17.00;99.90;;;;;;5036845;28;20023;-85
2023/01/03 12:57:26;;;;;;;2.38;1.30;;;16.80;99.90;;;;;;5053506;28;20571;-85
2023/01/03 13:00:25;;;;;;;1.50;1.40;;;17.00;99.90;;;;;;5053522;28;20052;-84
2023/01/03 13:03:12;;;;;;;3.15;2.40;;;16.80;99.90;;;;;;5053455;28;20036;-85
2023/01/03 13:05:42;;;;;;;2.33;1.88;;;17.50;99.90;;;;;;5053474;28;20100;-85
2023/01/03 13:08:42;;;;;;;2.22;1.33;;;17.00;99.90;;;;;;5052827;28;20049;-85
2023/01/03 13:11:28;;;;;;;1.85;1.60;;;18.00;99.90;;;;;;5053368;28;20037;-85
2023/01/03 13:13:59;;;;;;;1.30;1.20;;;17.60;99.90;;;;;;5053402;28;20025;-85
2023/01/03 13:16:39;;;;;;;1.77;1.50;;;19.00;99.90;;;;;;5053426;28;20029;-85
2023/01/03 13:19:22;;;;;;;1.77;1.67;;;18.40;99.90;;;;;;5052840;28;20075;-85
2023/01/03 13:21:52;;;;;;;1.98;1.88;;;16.60;99.90;;;;;;5053306;28;20029;-85
2023/01/03 13:24:44;;;;;;;2.42;1.90;;;16.00;99.90;;;;;;5052882;28;20021;-85
2023/01/03 13:27:16;;;;;;;2.17;1.50;;;16.00;99.90;;;;;;5052936;28;20501;-85
2023/01/03 13:29:47;;;;;;;3.70;3.00;;;15.80;99.90;;;;;;5052894;28;20033;-85
2023/01/03 13:32:19;;;;;;;2.13;1.92;;;15.80;99.90;;;;;;5052961;28;20029;-85
2023/01/03 13:35:04;;;;;;;1.75;1.45;;;15.60;99.90;;;;;;5052351;28;20102;-84
2023/01/03 13:37:50;;;;;;;1.83;1.27;;;15.10;99.90;;;;;;5051826;28;20025;-85
2023/01/03 13:40:23;;;;;;;1.67;1.23;;;14.60;99.90;;;;;;5032475;28;20029;-85
2023/01/03 13:43:02;;;;;;;2.67;1.67;;;14.50;99.90;;;;;;5033292;28;20029;-85
2023/01/03 13:45:30;;;;;;;2.45;1.30;;;14.40;99.90;;;;;;5032430;28;20485;-85
2023/01/03 13:47:57;;;;;;;2.00;1.40;;;14.30;99.90;;;;;;5032690;28;20038;-84
2023/01/03 13:50:32;;;;;;;1.67;1.02;;;14.30;99.90;;;;;;5032616;28;20041;-85
2023/01/03 13:53:09;;;;;;;1.50;1.10;;;14.00;99.90;;;;;;5032625;28;20032;-85
2023/01/03 13:55:36;;;;;;;2.45;1.55;;;14.20;99.90;;;;;;5042935;28;20494;-84
2023/01/03 13:58:23;;;;;;;1.35;1.10;;;14.20;99.90;;;;;;5052414;28;20023;-85
2023/01/03 14:00:55;;;;;;;3.28;1.30;;;14.20;99.90;;;;;;5048378;28;20512;-85
2023/01/03 14:03:49;;;;;;;3.17;1.95;;;14.00;99.90;;;;;;5052315;28;20020;-85
2023/01/03 14:06:36;;;;;;;1.45;1.10;;;13.70;99.90;;;;;;5052171;28;20027;-85